createdAt,value
2023-08-01T00:00:29.578Z,5.28
2023-08-01T00:02:58.285Z,4.10
2023-08-01T00:05:26.108Z,4.20
2023-08-01T00:07:54.101Z,4.30
2023-08-01T00:10:21.721Z,5.97
2023-08-01T00:12:49.346Z,6.55
2023-08-01T00:15:17.010Z,4.00
2023-08-01T00:17:44.638Z,3.97
2023-08-01T00:20:12.414Z,5.28
2023-08-01T00:22:40.554Z,3.33
2023-08-01T00:25:09.083Z,2.75
2023-08-01T00:27:40.425Z,6.63
2023-08-01T00:30:09.770Z,3.25
2023-08-01T00:32:38.423Z,2.33
2023-08-01T00:35:06.565Z,3.22
2023-08-01T00:37:34.142Z,1.63
2023-08-01T00:40:02.232Z,3.87
2023-08-01T00:42:29.840Z,3.17
2023-08-01T00:44:59.033Z,2.97
2023-08-01T00:47:27.003Z,2.92
2023-08-01T00:49:54.810Z,3.15
2023-08-01T00:52:23.414Z,3.33
2023-08-01T00:54:51.618Z,3.08
2023-08-01T00:57:19.319Z,2.58
2023-08-01T00:59:46.997Z,4.03
2023-08-01T01:02:14.694Z,2.20
2023-08-01T01:04:42.505Z,3.30
2023-08-01T01:07:10.127Z,1.92
2023-08-01T01:09:37.793Z,2.30
2023-08-01T01:12:05.696Z,3.88
2023-08-01T01:14:33.265Z,3.72
2023-08-01T01:17:01.081Z,2.17
2023-08-01T01:19:28.710Z,7.45
2023-08-01T01:21:57.331Z,2.00
2023-08-01T01:24:27.173Z,6.72
2023-08-01T01:26:56.472Z,3.35
2023-08-01T01:29:24.835Z,4.23
2023-08-01T01:31:53.617Z,5.45
2023-08-01T01:34:21.382Z,4.95
2023-08-01T01:36:48.946Z,3.13
2023-08-01T01:39:16.577Z,5.05
2023-08-01T01:41:44.139Z,4.17
2023-08-01T01:44:11.829Z,4.05
2023-08-01T01:46:40.142Z,3.97
2023-08-01T01:49:07.956Z,5.50
2023-08-01T01:51:35.759Z,3.70
2023-08-01T01:54:03.389Z,3.70
2023-08-01T01:56:31.115Z,3.80
2023-08-01T01:58:58.854Z,4.55
2023-08-01T02:01:26.446Z,4.80
2023-08-01T02:03:54.018Z,5.00
2023-08-01T02:06:21.597Z,1.80
2023-08-01T02:08:49.200Z,2.55
2023-08-01T02:11:16.880Z,2.58
2023-08-01T02:13:44.452Z,2.15
2023-08-01T02:16:12.316Z,2.50
2023-08-01T02:18:40.076Z,2.03
2023-08-01T02:21:07.694Z,1.70
2023-08-01T02:23:37.660Z,2.80
2023-08-01T02:26:05.748Z,4.45
2023-08-01T02:28:33.379Z,2.22
2023-08-01T02:31:01.071Z,1.70
2023-08-01T02:33:28.670Z,2.05
2023-08-01T02:35:56.412Z,1.45
2023-08-01T02:38:24.033Z,1.90
2023-08-01T02:40:51.665Z,1.48
2023-08-01T02:43:19.249Z,1.37
2023-08-01T02:45:46.922Z,1.13
2023-08-01T02:48:14.633Z,1.10
2023-08-01T02:50:42.462Z,1.67
2023-08-01T02:53:10.375Z,1.83
2023-08-01T02:55:38.155Z,1.97
2023-08-01T02:58:05.796Z,1.55
2023-08-01T03:00:33.472Z,2.25
2023-08-01T03:03:01.228Z,3.08
2023-08-01T03:05:28.978Z,1.73
2023-08-01T03:07:56.731Z,2.07
2023-08-01T03:12:58.354Z,1.40
2023-08-01T03:15:25.944Z,1.52
2023-08-01T03:17:53.608Z,2.65
2023-08-01T03:20:21.278Z,1.63
2023-08-01T03:22:48.875Z,1.92
2023-08-01T03:25:16.501Z,1.95
2023-08-01T03:27:44.182Z,2.10
2023-08-01T03:30:12.172Z,1.80
2023-08-01T03:32:41.212Z,2.03
2023-08-01T03:35:09.764Z,1.05
2023-08-01T03:37:37.397Z,1.88
2023-08-01T03:40:06.712Z,2.05
2023-08-01T03:42:34.290Z,2.28
2023-08-01T03:45:02.162Z,2.30
2023-08-01T03:47:31.796Z,2.53
2023-08-01T03:49:59.928Z,2.22
2023-08-01T03:52:27.927Z,3.85
2023-08-01T03:54:56.790Z,2.08
2023-08-01T03:57:24.863Z,5.10
2023-08-01T03:59:52.476Z,4.28
2023-08-01T04:02:20.118Z,3.90
2023-08-01T04:04:47.776Z,2.97
2023-08-01T04:07:15.353Z,3.17
2023-08-01T04:09:43.180Z,4.37
2023-08-01T04:12:10.878Z,3.40
2023-08-01T04:14:38.488Z,3.75
2023-08-01T04:17:06.258Z,3.10
2023-08-01T04:19:33.914Z,3.55
2023-08-01T04:22:01.509Z,2.93
2023-08-01T04:24:30.904Z,2.47
2023-08-01T04:26:58.522Z,2.78
2023-08-01T04:29:26.230Z,2.60
2023-08-01T04:31:53.829Z,2.45
2023-08-01T04:34:21.450Z,2.77
2023-08-01T04:36:49.103Z,2.75
2023-08-01T04:39:16.682Z,2.63
2023-08-01T04:41:44.234Z,3.08
2023-08-01T04:44:11.923Z,4.18
2023-08-01T04:46:39.841Z,2.57
2023-08-01T04:49:07.707Z,2.97
2023-08-01T04:51:35.491Z,3.13
2023-08-01T04:54:03.116Z,3.15
2023-08-01T04:56:30.752Z,2.95
2023-08-01T04:58:58.360Z,3.37
2023-08-01T05:01:25.988Z,4.90
2023-08-01T05:03:53.974Z,3.00
2023-08-01T05:06:21.585Z,2.97
2023-08-01T05:08:49.166Z,2.85
2023-08-01T05:11:16.789Z,4.23
2023-08-01T05:13:44.431Z,2.92
2023-08-01T05:16:12.108Z,4.45
2023-08-01T05:18:39.833Z,3.58
2023-08-01T05:21:07.471Z,3.42
2023-08-01T05:23:35.097Z,4.37
2023-08-01T05:26:02.716Z,5.15
2023-08-01T05:28:30.464Z,4.30
2023-08-01T05:30:58.253Z,3.83
2023-08-01T05:33:26.263Z,3.92
2023-08-01T05:35:53.929Z,3.87
2023-08-01T05:38:21.479Z,4.40
2023-08-01T05:40:49.113Z,4.35
2023-08-01T05:43:17.322Z,4.53
2023-08-01T05:45:44.940Z,2.63
2023-08-01T05:48:14.855Z,2.50
2023-08-01T05:50:42.419Z,3.40
2023-08-01T05:53:10.143Z,5.53
2023-08-01T05:55:37.842Z,3.05
2023-08-01T05:58:05.474Z,2.47
2023-08-01T06:00:33.100Z,2.63
2023-08-01T06:03:01.966Z,1.52
2023-08-01T06:05:29.716Z,0.93
2023-08-01T06:07:57.295Z,0.60
2023-08-01T06:10:25.286Z,2.45
2023-08-01T06:12:52.875Z,0.53
2023-08-01T06:15:20.478Z,3.13
2023-08-01T06:17:48.125Z,2.80
2023-08-01T06:20:15.849Z,1.20
2023-08-01T06:22:44.070Z,1.80
2023-08-01T06:25:11.765Z,2.73
2023-08-01T06:27:39.339Z,1.73
2023-08-01T06:30:07.582Z,3.53
2023-08-01T06:32:35.344Z,3.47
2023-08-01T06:35:02.991Z,1.23
2023-08-01T06:37:30.597Z,1.93
2023-08-01T06:40:00.599Z,2.17
2023-08-01T06:42:28.224Z,1.00
2023-08-01T06:44:55.878Z,8.82
2023-08-01T06:47:23.604Z,1.30
2023-08-01T06:49:51.236Z,2.20
2023-08-01T06:52:18.877Z,2.85
2023-08-01T06:54:46.567Z,3.25
2023-08-01T06:57:14.228Z,1.85
2023-08-01T06:59:41.869Z,1.63
2023-08-01T07:02:09.936Z,2.13
2023-08-01T07:04:38.832Z,1.70
2023-08-01T07:07:06.623Z,1.75
2023-08-01T07:09:35.770Z,2.60
2023-08-01T07:12:03.617Z,4.45
2023-08-01T07:14:31.661Z,1.93
2023-08-01T07:16:59.696Z,4.05
2023-08-01T07:19:27.365Z,1.63
2023-08-01T07:21:55.871Z,2.50
2023-08-01T07:24:26.184Z,1.90
2023-08-01T07:26:55.848Z,1.37
2023-08-01T07:29:23.456Z,3.72
2023-08-01T07:31:51.182Z,0.80
2023-08-01T07:34:18.797Z,1.55
2023-08-01T07:36:49.876Z,3.00
2023-08-01T07:39:18.049Z,3.10
2023-08-01T07:41:45.730Z,1.65
2023-08-01T07:44:13.359Z,2.35
2023-08-01T07:46:41.140Z,1.38
2023-08-01T07:49:09.004Z,2.40
2023-08-01T07:51:37.411Z,1.77
2023-08-01T07:54:05.091Z,2.88
2023-08-01T07:56:32.779Z,3.33
2023-08-01T07:59:00.439Z,4.68
2023-08-01T08:01:28.186Z,3.40
2023-08-01T08:03:55.941Z,1.77
2023-08-01T08:06:25.058Z,1.88
2023-08-01T08:08:52.752Z,2.58
2023-08-01T08:11:20.331Z,2.08
2023-08-01T08:13:47.977Z,2.33
2023-08-01T08:16:15.991Z,1.33
2023-08-01T08:18:43.689Z,3.20
2023-08-01T08:21:11.399Z,2.95
2023-08-01T08:23:39.782Z,4.30
2023-08-01T08:26:08.257Z,2.40
2023-08-01T08:28:35.973Z,1.40
2023-08-01T08:31:04.700Z,1.98
2023-08-01T08:33:32.749Z,1.50
2023-08-01T08:36:00.473Z,2.17
2023-08-01T08:38:30.304Z,1.43
2023-08-01T08:41:15.381Z,3.80
2023-08-01T08:43:43.371Z,2.42
2023-08-01T08:46:13.442Z,1.52
2023-08-01T08:48:41.954Z,1.40
2023-08-01T08:51:10.354Z,2.67
2023-08-01T08:53:38.812Z,1.00
2023-08-01T08:56:09.257Z,2.83
2023-08-01T08:58:42.545Z,2.00
2023-08-01T09:01:10.762Z,2.45
2023-08-01T09:03:38.492Z,1.63
2023-08-01T09:06:12.303Z,1.85
2023-08-01T09:08:41.792Z,2.08
2023-08-01T09:11:09.746Z,2.88
2023-08-01T09:13:37.618Z,2.78
2023-08-01T09:16:08.111Z,2.37
2023-08-01T09:18:35.808Z,2.25
2023-08-01T09:21:04.490Z,2.42
2023-08-01T09:23:32.285Z,3.20
2023-08-01T09:26:00.602Z,1.67
2023-08-01T09:28:28.883Z,1.40
2023-08-01T09:30:58.854Z,1.42
2023-08-01T09:33:26.670Z,2.08
2023-08-01T09:35:54.544Z,1.50
2023-08-01T09:38:22.410Z,1.40
2023-08-01T09:40:51.271Z,2.83
2023-08-01T09:43:19.046Z,2.63
2023-08-01T09:45:56.200Z,4.43
2023-08-01T09:48:27.035Z,2.90
2023-08-01T09:51:13.536Z,4.72
2023-08-01T09:53:55.689Z,2.30
2023-08-01T09:56:30.086Z,3.97
2023-08-01T09:59:00.890Z,2.63
2023-08-01T10:01:29.346Z,2.55
2023-08-01T10:03:58.129Z,2.70
2023-08-01T10:06:30.089Z,2.30
2023-08-01T10:08:59.302Z,3.07
2023-08-01T10:11:28.348Z,2.70
2023-08-01T10:13:57.190Z,2.95
2023-08-01T10:16:25.746Z,3.15
2023-08-01T10:18:54.849Z,4.97
2023-08-01T10:21:23.984Z,4.83
2023-08-01T10:23:51.954Z,3.15
2023-08-01T10:26:19.725Z,3.05
2023-08-01T10:28:53.083Z,3.42
2023-08-01T10:31:22.520Z,2.67
2023-08-01T10:33:51.433Z,4.83
2023-08-01T10:36:24.665Z,3.58
2023-08-01T10:38:55.101Z,4.65
2023-08-01T10:41:34.027Z,4.50
2023-08-01T10:44:16.291Z,3.55
2023-08-01T10:46:51.380Z,3.33
2023-08-01T10:49:20.751Z,4.32
2023-08-01T10:51:48.613Z,7.60
2023-08-01T10:54:24.299Z,4.18
2023-08-01T10:56:54.223Z,4.53
2023-08-01T10:59:23.588Z,2.90
2023-08-01T11:01:59.915Z,5.82
2023-08-01T11:04:27.593Z,4.45
2023-08-01T11:06:59.595Z,4.55
2023-08-01T11:09:29.290Z,3.38
2023-08-01T11:12:02.117Z,4.50
2023-08-01T11:14:30.767Z,2.97
2023-08-01T11:17:01.520Z,4.57
2023-08-01T11:19:30.804Z,3.38
2023-08-01T11:21:58.953Z,3.47
2023-08-01T11:24:27.748Z,4.40
2023-08-01T11:26:55.936Z,4.32
2023-08-01T11:29:23.595Z,3.47
2023-08-01T11:31:56.369Z,4.20
2023-08-01T11:34:24.865Z,5.95
2023-08-01T11:36:52.822Z,3.93
2023-08-01T11:39:20.776Z,4.05
2023-08-01T11:41:48.364Z,6.10
2023-08-01T11:44:16.037Z,5.63
2023-08-01T11:46:44.144Z,5.43
2023-08-01T11:49:15.475Z,3.70
2023-08-01T11:51:45.521Z,4.53
2023-08-01T11:54:14.592Z,4.82
2023-08-01T11:56:43.802Z,6.13
2023-08-01T11:59:13.964Z,7.75
2023-08-01T12:01:46.621Z,7.17
2023-08-01T12:04:26.218Z,5.50
2023-08-01T12:06:53.926Z,6.97
2023-08-01T12:09:21.918Z,8.07
2023-08-01T12:11:59.932Z,5.88
2023-08-01T12:14:29.377Z,5.07
2023-08-01T12:16:57.082Z,9.35
2023-08-01T12:19:24.758Z,4.57
2023-08-01T12:21:52.326Z,6.60
2023-08-01T12:24:19.941Z,5.65
2023-08-01T12:26:47.545Z,5.33
2023-08-01T12:29:15.115Z,6.72
2023-08-01T12:31:42.808Z,11.00
2023-08-01T12:34:10.538Z,5.80
2023-08-01T12:36:38.329Z,6.13
2023-08-01T12:39:11.708Z,6.83
2023-08-01T12:41:39.607Z,8.23
2023-08-01T12:44:07.273Z,8.50
2023-08-01T12:46:34.981Z,9.05
2023-08-01T12:49:02.593Z,7.28
2023-08-01T12:51:30.268Z,5.63
2023-08-01T12:53:57.839Z,6.53
2023-08-01T12:56:25.592Z,9.77
2023-08-01T12:58:53.147Z,7.70
2023-08-01T13:01:20.830Z,7.03
2023-08-01T13:03:48.462Z,5.17
2023-08-01T13:06:16.150Z,5.50
2023-08-01T13:08:43.811Z,8.70
2023-08-01T13:11:13.978Z,5.78
2023-08-01T13:13:43.157Z,7.40
2023-08-01T13:16:11.127Z,6.10
2023-08-01T13:18:44.654Z,8.63
2023-08-01T13:21:13.633Z,6.55
2023-08-01T13:23:41.423Z,8.35
2023-08-01T13:26:09.496Z,6.45
2023-08-01T13:28:37.160Z,7.43
2023-08-01T13:31:05.155Z,7.25
2023-08-01T13:33:32.884Z,9.00
2023-08-01T13:36:00.662Z,8.13
2023-08-01T13:38:29.513Z,7.78
2023-08-01T13:41:01.718Z,11.47
2023-08-01T13:43:29.372Z,8.75
2023-08-01T13:45:57.493Z,6.25
2023-08-01T13:48:25.419Z,5.82
2023-08-01T13:50:53.007Z,8.63
2023-08-01T13:53:20.691Z,9.20
2023-08-01T13:55:48.325Z,9.60
2023-08-01T13:58:15.926Z,6.78
2023-08-01T14:00:43.945Z,6.03
2023-08-01T14:03:12.005Z,5.63
2023-08-01T14:05:39.678Z,7.90
2023-08-01T14:08:07.338Z,6.50
2023-08-01T14:10:35.077Z,8.65
2023-08-01T14:13:02.732Z,6.60
2023-08-01T14:15:30.353Z,5.70
2023-08-01T14:17:58.040Z,7.37
2023-08-01T14:20:25.687Z,6.22
2023-08-01T14:22:53.643Z,6.75
2023-08-01T14:25:21.274Z,7.00
2023-08-01T14:27:48.953Z,6.05
2023-08-01T14:30:16.615Z,5.53
2023-08-01T14:32:44.406Z,5.20
2023-08-01T14:35:13.102Z,6.45
2023-08-01T14:37:43.568Z,6.63
2023-08-01T14:40:11.488Z,9.60
2023-08-01T14:42:41.487Z,6.27
2023-08-01T14:45:10.833Z,7.28
2023-08-01T14:47:39.146Z,5.68
2023-08-01T14:50:07.721Z,5.63
2023-08-01T14:52:35.354Z,4.43
2023-08-01T14:55:03.174Z,5.23
2023-08-01T14:57:30.840Z,7.75
2023-08-01T14:59:58.858Z,6.47
2023-08-01T15:02:27.345Z,9.02
2023-08-01T15:04:59.170Z,5.85
2023-08-01T15:07:27.453Z,6.93
2023-08-01T15:09:57.144Z,4.85
2023-08-01T15:12:25.694Z,4.05
2023-08-01T15:14:57.680Z,5.22
2023-08-01T15:17:25.916Z,7.88
2023-08-01T15:19:54.868Z,4.33
2023-08-01T15:22:22.704Z,4.75
2023-08-01T15:24:50.358Z,5.13
2023-08-01T15:27:18.148Z,5.65
2023-08-01T15:29:47.866Z,6.03
2023-08-01T15:32:15.633Z,6.60
2023-08-01T15:34:43.252Z,5.93
2023-08-01T15:37:11.250Z,8.32
2023-08-01T15:39:38.955Z,6.47
2023-08-01T15:42:06.842Z,6.65
2023-08-01T15:44:34.426Z,5.00
2023-08-01T15:47:02.243Z,5.13
2023-08-01T15:49:29.789Z,5.70
2023-08-01T15:51:57.439Z,5.50
2023-08-01T15:54:25.032Z,5.32
2023-08-01T15:56:54.318Z,5.60
2023-08-01T15:59:22.033Z,4.35
2023-08-01T16:01:50.834Z,7.20
2023-08-01T16:04:18.665Z,7.20
2023-08-01T16:06:46.502Z,4.53
2023-08-01T16:09:14.253Z,5.37
2023-08-01T16:11:41.838Z,3.42
2023-08-01T16:14:09.927Z,7.05
2023-08-01T16:16:37.619Z,4.82
2023-08-01T16:19:05.182Z,4.65
2023-08-01T16:21:32.769Z,6.83
2023-08-01T16:24:02.375Z,7.20
2023-08-01T16:26:30.122Z,6.03
2023-08-01T16:28:57.729Z,5.88
2023-08-01T16:31:25.810Z,6.70
2023-08-01T16:33:53.440Z,3.97
2023-08-01T16:36:21.050Z,2.85
2023-08-01T16:38:48.654Z,5.57
2023-08-01T16:41:22.500Z,4.97
2023-08-01T16:43:50.343Z,4.90
2023-08-01T16:46:18.031Z,5.07
2023-08-01T16:48:45.747Z,5.65
2023-08-01T16:51:13.681Z,4.68
2023-08-01T16:53:41.357Z,6.72
2023-08-01T16:56:08.925Z,5.38
2023-08-01T16:58:36.565Z,5.73
2023-08-01T17:01:04.491Z,5.53
2023-08-01T17:03:32.482Z,5.95
2023-08-01T17:06:00.361Z,5.57
2023-08-01T17:08:28.067Z,4.45
2023-08-01T17:10:55.918Z,7.80
2023-08-01T17:13:24.314Z,5.05
2023-08-01T17:15:52.020Z,4.40
2023-08-01T17:18:21.803Z,5.97
2023-08-01T17:20:49.579Z,5.30
2023-08-01T17:23:17.216Z,4.67
2023-08-01T17:25:45.208Z,4.97
2023-08-01T17:28:12.896Z,7.70
2023-08-01T17:30:40.720Z,6.38
2023-08-01T17:33:10.268Z,5.40
2023-08-01T17:35:38.716Z,6.80
2023-08-01T17:38:06.311Z,7.72
2023-08-01T17:40:33.981Z,6.63
2023-08-01T17:43:02.324Z,5.30
2023-08-01T17:45:30.863Z,5.78
2023-08-01T17:47:59.085Z,6.27
2023-08-01T17:50:27.026Z,6.25
2023-08-01T17:52:54.704Z,4.78
2023-08-01T17:55:22.366Z,7.68
2023-08-01T17:57:50.529Z,3.85
2023-08-01T18:00:19.228Z,7.17
2023-08-01T18:02:47.034Z,7.40
2023-08-01T18:05:15.900Z,7.05
2023-08-01T18:07:44.992Z,9.77
2023-08-01T18:10:16.344Z,5.03
2023-08-01T18:12:48.047Z,6.00
2023-08-01T18:15:15.790Z,7.78
2023-08-01T18:17:43.409Z,8.45
2023-08-01T18:20:11.669Z,5.32
2023-08-01T18:22:39.309Z,4.97
2023-08-01T18:25:07.625Z,6.83
2023-08-01T18:27:35.203Z,7.80
2023-08-01T18:30:02.984Z,8.10
2023-08-01T18:32:30.584Z,7.07
2023-08-01T18:35:00.300Z,7.57
2023-08-01T18:37:28.553Z,12.13
2023-08-01T18:39:56.652Z,8.77
2023-08-01T18:42:25.353Z,7.93
2023-08-01T18:44:53.619Z,6.45
2023-08-01T18:47:21.336Z,7.30
2023-08-01T18:49:51.693Z,9.17
2023-08-01T18:52:19.452Z,6.38
2023-08-01T18:54:53.161Z,10.23
2023-08-01T18:57:20.854Z,10.30
2023-08-01T18:59:48.492Z,8.75
2023-08-01T19:02:16.225Z,9.33
2023-08-01T19:04:45.644Z,6.68
2023-08-01T19:07:13.405Z,6.00
2023-08-01T19:09:41.133Z,9.60
2023-08-01T19:12:09.190Z,8.75
2023-08-01T19:14:37.127Z,4.43
2023-08-01T19:17:05.103Z,6.22
2023-08-01T19:19:32.853Z,5.68
2023-08-01T19:22:00.485Z,6.80
2023-08-01T19:24:28.254Z,10.15
2023-08-01T19:26:57.069Z,7.40
2023-08-01T19:29:26.694Z,6.97
2023-08-01T19:31:54.752Z,9.15
2023-08-01T19:34:22.641Z,6.70
2023-08-01T19:36:51.953Z,15.75
2023-08-01T19:39:20.461Z,5.67
2023-08-01T19:41:48.081Z,9.65
2023-08-01T19:44:16.300Z,10.38
2023-08-01T19:46:44.299Z,7.15
2023-08-01T19:49:12.573Z,6.55
2023-08-01T19:51:41.069Z,7.33
2023-08-01T19:54:08.768Z,7.78
2023-08-01T19:56:36.623Z,9.02
2023-08-01T19:59:04.382Z,12.60
2023-08-01T20:01:32.221Z,11.82
2023-08-01T20:04:01.516Z,7.83
2023-08-01T20:06:30.100Z,10.40
2023-08-01T20:08:57.706Z,8.55
2023-08-01T20:11:25.454Z,7.82
2023-08-01T20:13:53.097Z,12.98
2023-08-01T20:16:21.197Z,8.00
2023-08-01T20:18:48.826Z,10.18
2023-08-01T20:21:16.462Z,10.73
2023-08-01T20:23:44.060Z,11.38
2023-08-01T20:26:11.767Z,8.18
2023-08-01T20:28:39.452Z,11.60
2023-08-01T20:31:07.305Z,9.88
2023-08-01T20:33:35.676Z,10.18
2023-08-01T20:36:03.530Z,11.98
2023-08-01T20:38:31.155Z,9.48
2023-08-01T20:40:58.825Z,8.13
2023-08-01T20:43:27.675Z,10.35
2023-08-01T20:45:57.107Z,11.15
2023-08-01T20:48:25.154Z,7.22
2023-08-01T20:50:52.850Z,9.18
2023-08-01T20:53:20.610Z,6.13
2023-08-01T20:55:48.295Z,6.07
2023-08-01T20:58:18.870Z,10.27
2023-08-01T21:00:47.199Z,8.85
2023-08-01T21:03:15.065Z,6.25
2023-08-01T21:05:42.719Z,10.27
2023-08-01T21:08:10.287Z,10.07
2023-08-01T21:10:37.957Z,11.35
2023-08-01T21:13:05.949Z,7.97
2023-08-01T21:15:33.596Z,9.88
2023-08-01T21:18:01.489Z,7.03
2023-08-01T21:20:29.227Z,6.70
2023-08-01T21:22:56.808Z,8.57
2023-08-01T21:25:24.489Z,8.68
2023-08-01T21:27:52.648Z,7.30
2023-08-01T21:30:20.240Z,9.53
2023-08-01T21:32:48.197Z,6.97
2023-08-01T21:35:17.592Z,5.10
2023-08-01T21:37:45.279Z,6.05
2023-08-01T21:40:13.015Z,5.95
2023-08-01T21:42:40.575Z,7.23
2023-08-01T21:45:09.085Z,7.00
2023-08-01T21:47:36.764Z,6.18
2023-08-01T21:50:04.711Z,6.65
2023-08-01T21:52:32.454Z,5.45
2023-08-01T21:55:00.137Z,6.53
2023-08-01T21:57:27.745Z,6.55
2023-08-01T21:59:56.449Z,6.85
2023-08-01T22:02:24.254Z,5.82
2023-08-01T22:04:51.970Z,6.75
2023-08-01T22:07:19.582Z,5.27
2023-08-01T22:09:47.375Z,3.83
2023-08-01T22:12:14.993Z,6.65
2023-08-01T22:14:42.604Z,6.78
2023-08-01T22:17:10.316Z,4.47
2023-08-01T22:19:37.992Z,5.17
2023-08-01T22:22:05.888Z,5.00
2023-08-01T22:24:34.138Z,4.95
2023-08-01T22:27:01.719Z,4.55
2023-08-01T22:29:29.653Z,4.35
2023-08-01T22:31:57.446Z,5.23
2023-08-01T22:34:26.172Z,3.40
2023-08-01T22:36:53.786Z,4.80
2023-08-01T22:39:21.404Z,4.15
2023-08-01T22:41:49.011Z,4.85
2023-08-01T22:44:16.585Z,4.87
2023-08-01T22:46:44.645Z,4.30
2023-08-01T22:49:12.670Z,5.32
2023-08-01T22:51:40.451Z,4.63
2023-08-01T22:54:10.163Z,3.97
2023-08-01T22:56:37.906Z,4.33
2023-08-01T22:59:05.559Z,5.95
2023-08-01T23:01:33.423Z,4.63
2023-08-01T23:04:01.703Z,6.68
2023-08-01T23:11:44.856Z,3.47
2023-08-01T23:15:08.714Z,4.88
2023-08-01T23:18:01.543Z,4.90
2023-08-01T23:20:29.421Z,3.72
2023-08-01T23:22:57.004Z,4.82
2023-08-01T23:25:24.605Z,5.23
2023-08-01T23:27:54.954Z,3.40
2023-08-01T23:30:22.586Z,4.80
2023-08-01T23:32:53.837Z,4.93
2023-08-01T23:35:21.706Z,3.83
2023-08-01T23:37:50.925Z,4.00
2023-08-01T23:40:19.742Z,4.35
2023-08-01T23:42:48.184Z,4.53
2023-08-01T23:45:15.806Z,5.43
2023-08-01T23:47:43.471Z,6.57
2023-08-01T23:50:11.065Z,3.70
2023-08-01T23:52:38.617Z,4.80
2023-08-01T23:55:06.543Z,5.57
2023-08-01T23:57:34.054Z,3.80
